sensor_id;sensor_type;location;lat;lon;timestamp;P1;P2;P0
73973;PMS5003;62336;-26.094;27.994;2023-04-24T00:00:48;31;29;
73973;PMS5003;62336;-26.094;27.994;2023-04-24T00:03:13;29;27;
73973;PMS5003;62336;-26.094;27.994;2023-04-24T00:05:39;27;25;
73973;PMS5003;62336;-26.094;27.994;2023-04-24T00:08:05;29;27;
73973;PMS5003;62336;-26.094;27.994;2023-04-24T00:10:30;28;24;
73973;PMS5003;62336;-26.094;27.994;2023-04-24T00:12:56;33;31;
73973;PMS5003;62336;-26.094;27.994;2023-04-24T00:15:21;30;28;
73973;PMS5003;62336;-26.094;27.994;2023-04-24T00:17:48;25;24;
73973;PMS5003;62336;-26.094;27.994;2023-04-24T00:20:13;24;23;
73973;PMS5003;62336;-26.094;27.994;2023-04-24T00:22:38;23;22;
73973;PMS5003;62336;-26.094;27.994;2023-04-24T00:25:04;30;29;
73973;PMS5003;62336;-26.094;27.994;2023-04-24T00:27:30;26;25;
73973;PMS5003;62336;-26.094;27.994;2023-04-24T00:29:55;26;22;
73973;PMS5003;62336;-26.094;27.994;2023-04-24T00:32:21;25;24;
73973;PMS5003;62336;-26.094;27.994;2023-04-24T00:34:46;28;25;
73973;PMS5003;62336;-26.094;27.994;2023-04-24T00:37:11;19;17;
73973;PMS5003;62336;-26.094;27.994;2023-04-24T00:39:37;25;24;
73973;PMS5003;62336;-26.094;27.994;2023-04-24T00:42:02;23;22;
73973;PMS5003;62336;-26.094;27.994;2023-04-24T00:44:28;29;24;
73973;PMS5003;62336;-26.094;27.994;2023-04-24T00:46:53;29;27;
73973;PMS5003;62336;-26.094;27.994;2023-04-24T00:49:18;25;24;
73973;PMS5003;62336;-26.094;27.994;2023-04-24T00:51:43;23;21;
73973;PMS5003;62336;-26.094;27.994;2023-04-24T00:54:08;29;25;
73973;PMS5003;62336;-26.094;27.994;2023-04-24T00:56:34;24;22;
73973;PMS5003;62336;-26.094;27.994;2023-04-24T00:58:59;21;21;
73973;PMS5003;62336;-26.094;27.994;2023-04-24T01:01:24;23;22;
73973;PMS5003;62336;-26.094;27.994;2023-04-24T01:03:51;23;20;
73973;PMS5003;62336;-26.094;27.994;2023-04-24T01:06:16;24;20;
73973;PMS5003;62336;-26.094;27.994;2023-04-24T01:08:41;21;20;
73973;PMS5003;62336;-26.094;27.994;2023-04-24T01:11:07;18;17;
73973;PMS5003;62336;-26.094;27.994;2023-04-24T01:13:32;16;16;
73973;PMS5003;62336;-26.094;27.994;2023-04-24T01:15:57;17;17;
73973;PMS5003;62336;-26.094;27.994;2023-04-24T01:18:24;15;15;
73973;PMS5003;62336;-26.094;27.994;2023-04-24T01:20:47;16;15;
73973;PMS5003;62336;-26.094;27.994;2023-04-24T01:23:13;13;13;
73973;PMS5003;62336;-26.094;27.994;2023-04-24T01:25:38;10;10;
73973;PMS5003;62336;-26.094;27.994;2023-04-24T01:28:04;14;14;
73973;PMS5003;62336;-26.094;27.994;2023-04-24T01:30:30;15;14;
73973;PMS5003;62336;-26.094;27.994;2023-04-24T01:32:55;13;11;
73973;PMS5003;62336;-26.094;27.994;2023-04-24T01:35:21;8;8;
73973;PMS5003;62336;-26.094;27.994;2023-04-24T01:37:46;13;12;
73973;PMS5003;62336;-26.094;27.994;2023-04-24T01:40:11;8;7;
73973;PMS5003;62336;-26.094;27.994;2023-04-24T01:42:36;6;6;
73973;PMS5003;62336;-26.094;27.994;2023-04-24T01:45:02;8;8;
73973;PMS5003;62336;-26.094;27.994;2023-04-24T01:47:26;6;6;
73973;PMS5003;62336;-26.094;27.994;2023-04-24T01:49:52;5;4;
73973;PMS5003;62336;-26.094;27.994;2023-04-24T01:52:17;5;5;
73973;PMS5003;62336;-26.094;27.994;2023-04-24T01:54:41;5;5;
73973;PMS5003;62336;-26.094;27.994;2023-04-24T01:57:06;5;5;
73973;PMS5003;62336;-26.094;27.994;2023-04-24T01:59:31;4;4;
73973;PMS5003;62336;-26.094;27.994;2023-04-24T02:01:57;4;4;
73973;PMS5003;62336;-26.094;27.994;2023-04-24T02:04:23;3;2;
73973;PMS5003;62336;-26.094;27.994;2023-04-24T02:06:47;3;3;
73973;PMS5003;62336;-26.094;27.994;2023-04-24T02:09:12;2;2;
73973;PMS5003;62336;-26.094;27.994;2023-04-24T02:11:37;2;2;
73973;PMS5003;62336;-26.094;27.994;2023-04-24T02:14:02;2;2;
73973;PMS5003;62336;-26.094;27.994;2023-04-24T02:16:28;3;3;
73973;PMS5003;62336;-26.094;27.994;2023-04-24T02:18:53;3;3;
73973;PMS5003;62336;-26.094;27.994;2023-04-24T02:21:18;3;2;
73973;PMS5003;62336;-26.094;27.994;2023-04-24T02:23:43;3;2;
73973;PMS5003;62336;-26.094;27.994;2023-04-24T02:26:09;4;4;
73973;PMS5003;62336;-26.094;27.994;2023-04-24T02:28:33;3;3;
73973;PMS5003;62336;-26.094;27.994;2023-04-24T02:30:59;5;4;
73973;PMS5003;62336;-26.094;27.994;2023-04-24T02:33:24;5;5;
73973;PMS5003;62336;-26.094;27.994;2023-04-24T02:35:48;5;5;
73973;PMS5003;62336;-26.094;27.994;2023-04-24T02:38:14;4;4;
73973;PMS5003;62336;-26.094;27.994;2023-04-24T02:40:39;7;7;
73973;PMS5003;62336;-26.094;27.994;2023-04-24T02:43:04;5;5;
73973;PMS5003;62336;-26.094;27.994;2023-04-24T02:45:29;8;8;
73973;PMS5003;62336;-26.094;27.994;2023-04-24T02:47:54;10;10;
73973;PMS5003;62336;-26.094;27.994;2023-04-24T02:50:19;10;10;
73973;PMS5003;62336;-26.094;27.994;2023-04-24T02:52:44;9;9;
73973;PMS5003;62336;-26.094;27.994;2023-04-24T02:55:09;11;10;
73973;PMS5003;62336;-26.094;27.994;2023-04-24T02:57:35;11;11;
73973;PMS5003;62336;-26.094;27.994;2023-04-24T03:00:01;11;11;
73973;PMS5003;62336;-26.094;27.994;2023-04-24T03:02:27;10;9;
73973;PMS5003;62336;-26.094;27.994;2023-04-24T03:04:51;8;8;
73973;PMS5003;62336;-26.094;27.994;2023-04-24T03:07:17;10;10;
73973;PMS5003;62336;-26.094;27.994;2023-04-24T03:09:42;7;7;
73973;PMS5003;62336;-26.094;27.994;2023-04-24T03:12:07;9;9;
73973;PMS5003;62336;-26.094;27.994;2023-04-24T03:14:32;9;9;
73973;PMS5003;62336;-26.094;27.994;2023-04-24T03:16:57;8;8;
73973;PMS5003;62336;-26.094;27.994;2023-04-24T03:19:23;10;10;
73973;PMS5003;62336;-26.094;27.994;2023-04-24T03:21:48;10;9;
73973;PMS5003;62336;-26.094;27.994;2023-04-24T03:24:13;9;9;
73973;PMS5003;62336;-26.094;27.994;2023-04-24T03:26:38;14;12;
73973;PMS5003;62336;-26.094;27.994;2023-04-24T03:29:03;10;9;
73973;PMS5003;62336;-26.094;27.994;2023-04-24T03:31:28;10;10;
73973;PMS5003;62336;-26.094;27.994;2023-04-24T03:33:53;9;9;
73973;PMS5003;62336;-26.094;27.994;2023-04-24T03:36:18;9;9;
73973;PMS5003;62336;-26.094;27.994;2023-04-24T03:38:43;10;9;
73973;PMS5003;62336;-26.094;27.994;2023-04-24T03:41:08;8;7;
73973;PMS5003;62336;-26.094;27.994;2023-04-24T03:43:33;5;5;
73973;PMS5003;62336;-26.094;27.994;2023-04-24T03:45:58;6;6;
73973;PMS5003;62336;-26.094;27.994;2023-04-24T03:48:23;7;7;
73973;PMS5003;62336;-26.094;27.994;2023-04-24T03:50:48;6;5;
73973;PMS5003;62336;-26.094;27.994;2023-04-24T03:53:13;8;7;
73973;PMS5003;62336;-26.094;27.994;2023-04-24T03:55:39;7;6;
73973;PMS5003;62336;-26.094;27.994;2023-04-24T03:58:03;7;6;
73973;PMS5003;62336;-26.094;27.994;2023-04-24T04:00:28;9;9;
73973;PMS5003;62336;-26.094;27.994;2023-04-24T04:02:53;9;9;
73973;PMS5003;62336;-26.094;27.994;2023-04-24T04:05:18;8;8;
73973;PMS5003;62336;-26.094;27.994;2023-04-24T04:07:44;9;9;
73973;PMS5003;62336;-26.094;27.994;2023-04-24T04:10:09;9;9;
73973;PMS5003;62336;-26.094;27.994;2023-04-24T04:12:34;9;9;
73973;PMS5003;62336;-26.094;27.994;2023-04-24T04:14:59;8;8;
73973;PMS5003;62336;-26.094;27.994;2023-04-24T04:17:25;7;7;
73973;PMS5003;62336;-26.094;27.994;2023-04-24T04:19:49;10;10;
73973;PMS5003;62336;-26.094;27.994;2023-04-24T04:22:14;9;9;
73973;PMS5003;62336;-26.094;27.994;2023-04-24T04:24:39;10;10;
73973;PMS5003;62336;-26.094;27.994;2023-04-24T04:27:05;11;11;
73973;PMS5003;62336;-26.094;27.994;2023-04-24T04:29:29;7;7;
73973;PMS5003;62336;-26.094;27.994;2023-04-24T04:31:55;9;9;
73973;PMS5003;62336;-26.094;27.994;2023-04-24T04:34:19;9;9;
73973;PMS5003;62336;-26.094;27.994;2023-04-24T04:36:46;8;8;
73973;PMS5003;62336;-26.094;27.994;2023-04-24T04:39:11;8;8;
73973;PMS5003;62336;-26.094;27.994;2023-04-24T04:41:36;11;10;
73973;PMS5003;62336;-26.094;27.994;2023-04-24T04:44:02;8;8;
73973;PMS5003;62336;-26.094;27.994;2023-04-24T04:46:27;9;8;
73973;PMS5003;62336;-26.094;27.994;2023-04-24T04:48:53;8;7;
73973;PMS5003;62336;-26.094;27.994;2023-04-24T04:51:19;9;8;
73973;PMS5003;62336;-26.094;27.994;2023-04-24T04:53:44;9;9;
73973;PMS5003;62336;-26.094;27.994;2023-04-24T04:56:09;9;9;
73973;PMS5003;62336;-26.094;27.994;2023-04-24T04:58:34;9;9;
73973;PMS5003;62336;-26.094;27.994;2023-04-24T05:01:00;8;7;
73973;PMS5003;62336;-26.094;27.994;2023-04-24T05:03:24;6;6;
73973;PMS5003;62336;-26.094;27.994;2023-04-24T05:05:50;7;7;
73973;PMS5003;62336;-26.094;27.994;2023-04-24T05:08:15;7;6;
73973;PMS5003;62336;-26.094;27.994;2023-04-24T05:10:39;5;5;
73973;PMS5003;62336;-26.094;27.994;2023-04-24T05:13:06;5;5;
73973;PMS5003;62336;-26.094;27.994;2023-04-24T05:15:30;6;6;
73973;PMS5003;62336;-26.094;27.994;2023-04-24T05:17:55;6;6;
73973;PMS5003;62336;-26.094;27.994;2023-04-24T05:20:21;8;7;
73973;PMS5003;62336;-26.094;27.994;2023-04-24T05:22:47;6;6;
73973;PMS5003;62336;-26.094;27.994;2023-04-24T05:25:12;4;4;
73973;PMS5003;62336;-26.094;27.994;2023-04-24T05:27:38;6;6;
73973;PMS5003;62336;-26.094;27.994;2023-04-24T05:30:03;6;6;
73973;PMS5003;62336;-26.094;27.994;2023-04-24T05:32:28;6;5;
73973;PMS5003;62336;-26.094;27.994;2023-04-24T05:34:53;6;6;
73973;PMS5003;62336;-26.094;27.994;2023-04-24T05:37:18;8;8;
73973;PMS5003;62336;-26.094;27.994;2023-04-24T05:39:43;7;7;
73973;PMS5003;62336;-26.094;27.994;2023-04-24T05:42:08;10;10;
73973;PMS5003;62336;-26.094;27.994;2023-04-24T05:44:33;9;9;
73973;PMS5003;62336;-26.094;27.994;2023-04-24T05:46:58;8;7;
73973;PMS5003;62336;-26.094;27.994;2023-04-24T05:49:25;6;6;
73973;PMS5003;62336;-26.094;27.994;2023-04-24T05:51:48;11;10;
73973;PMS5003;62336;-26.094;27.994;2023-04-24T05:54:13;10;10;
73973;PMS5003;62336;-26.094;27.994;2023-04-24T05:56:40;12;11;
73973;PMS5003;62336;-26.094;27.994;2023-04-24T05:59:04;17;17;
73973;PMS5003;62336;-26.094;27.994;2023-04-24T06:01:30;15;14;
73973;PMS5003;62336;-26.094;27.994;2023-04-24T06:03:55;17;17;
73973;PMS5003;62336;-26.094;27.994;2023-04-24T06:06:21;26;25;
73973;PMS5003;62336;-26.094;27.994;2023-04-24T06:08:47;20;19;
73973;PMS5003;62336;-26.094;27.994;2023-04-24T06:11:12;20;18;
73973;PMS5003;62336;-26.094;27.994;2023-04-24T06:13:36;20;20;
73973;PMS5003;62336;-26.094;27.994;2023-04-24T06:16:01;16;15;
73973;PMS5003;62336;-26.094;27.994;2023-04-24T06:18:27;15;15;
73973;PMS5003;62336;-26.094;27.994;2023-04-24T06:20:52;14;14;
73973;PMS5003;62336;-26.094;27.994;2023-04-24T06:23:18;14;13;
73973;PMS5003;62336;-26.094;27.994;2023-04-24T06:25:46;19;14;
73973;PMS5003;62336;-26.094;27.994;2023-04-24T06:28:10;11;11;
73973;PMS5003;62336;-26.094;27.994;2023-04-24T06:30:36;12;9;
73973;PMS5003;62336;-26.094;27.994;2023-04-24T06:33:05;12;11;
73973;PMS5003;62336;-26.094;27.994;2023-04-24T06:35:24;12;10;
73973;PMS5003;62336;-26.094;27.994;2023-04-24T06:37:50;9;7;
73973;PMS5003;62336;-26.094;27.994;2023-04-24T06:40:16;9;9;
73973;PMS5003;62336;-26.094;27.994;2023-04-24T06:42:40;9;9;
73973;PMS5003;62336;-26.094;27.994;2023-04-24T06:45:05;10;8;
73973;PMS5003;62336;-26.094;27.994;2023-04-24T06:47:31;6;6;
73973;PMS5003;62336;-26.094;27.994;2023-04-24T06:49:56;11;10;
73973;PMS5003;62336;-26.094;27.994;2023-04-24T06:52:21;8;7;
73973;PMS5003;62336;-26.094;27.994;2023-04-24T06:54:46;11;11;
73973;PMS5003;62336;-26.094;27.994;2023-04-24T06:57:12;9;9;
73973;PMS5003;62336;-26.094;27.994;2023-04-24T06:59:38;8;8;
73973;PMS5003;62336;-26.094;27.994;2023-04-24T07:02:04;11;11;
73973;PMS5003;62336;-26.094;27.994;2023-04-24T07:04:29;12;11;
73973;PMS5003;62336;-26.094;27.994;2023-04-24T07:06:54;12;12;
73973;PMS5003;62336;-26.094;27.994;2023-04-24T07:09:19;15;13;
73973;PMS5003;62336;-26.094;27.994;2023-04-24T07:11:45;12;12;
73973;PMS5003;62336;-26.094;27.994;2023-04-24T07:14:09;16;15;
73973;PMS5003;62336;-26.094;27.994;2023-04-24T07:16:35;18;17;
73973;PMS5003;62336;-26.094;27.994;2023-04-24T07:19:01;18;16;
73973;PMS5003;62336;-26.094;27.994;2023-04-24T07:21:26;18;16;
73973;PMS5003;62336;-26.094;27.994;2023-04-24T07:23:51;15;14;
73973;PMS5003;62336;-26.094;27.994;2023-04-24T07:26:17;21;20;
73973;PMS5003;62336;-26.094;27.994;2023-04-24T07:28:42;16;16;
73973;PMS5003;62336;-26.094;27.994;2023-04-24T07:31:08;15;15;
73973;PMS5003;62336;-26.094;27.994;2023-04-24T07:33:32;19;18;
73973;PMS5003;62336;-26.094;27.994;2023-04-24T07:35:58;19;19;
73973;PMS5003;62336;-26.094;27.994;2023-04-24T07:38:23;20;18;
73973;PMS5003;62336;-26.094;27.994;2023-04-24T07:40:48;17;17;
73973;PMS5003;62336;-26.094;27.994;2023-04-24T07:43:13;16;15;
73973;PMS5003;62336;-26.094;27.994;2023-04-24T07:45:38;16;15;
73973;PMS5003;62336;-26.094;27.994;2023-04-24T07:48:04;20;17;
73973;PMS5003;62336;-26.094;27.994;2023-04-24T07:50:30;19;18;
73973;PMS5003;62336;-26.094;27.994;2023-04-24T07:52:55;23;21;
73973;PMS5003;62336;-26.094;27.994;2023-04-24T07:55:20;23;21;
73973;PMS5003;62336;-26.094;27.994;2023-04-24T07:57:46;25;24;
73973;PMS5003;62336;-26.094;27.994;2023-04-24T08:00:12;24;22;
73973;PMS5003;62336;-26.094;27.994;2023-04-24T08:02:37;23;21;
73973;PMS5003;62336;-26.094;27.994;2023-04-24T08:05:03;25;24;
73973;PMS5003;62336;-26.094;27.994;2023-04-24T08:07:28;21;19;
73973;PMS5003;62336;-26.094;27.994;2023-04-24T08:09:53;18;17;
73973;PMS5003;62336;-26.094;27.994;2023-04-24T08:12:18;14;14;
73973;PMS5003;62336;-26.094;27.994;2023-04-24T08:14:43;19;19;
73973;PMS5003;62336;-26.094;27.994;2023-04-24T08:17:09;20;17;
73973;PMS5003;62336;-26.094;27.994;2023-04-24T08:19:34;15;14;
73973;PMS5003;62336;-26.094;27.994;2023-04-24T08:21:59;17;16;
73973;PMS5003;62336;-26.094;27.994;2023-04-24T08:24:25;22;20;
73973;PMS5003;62336;-26.094;27.994;2023-04-24T08:26:50;24;22;
73973;PMS5003;62336;-26.094;27.994;2023-04-24T08:29:15;24;22;
73973;PMS5003;62336;-26.094;27.994;2023-04-24T08:31:41;28;24;
73973;PMS5003;62336;-26.094;27.994;2023-04-24T08:34:06;24;22;
73973;PMS5003;62336;-26.094;27.994;2023-04-24T08:36:32;28;27;
73973;PMS5003;62336;-26.094;27.994;2023-04-24T08:38:58;27;27;
73973;PMS5003;62336;-26.094;27.994;2023-04-24T08:41:23;34;32;
73973;PMS5003;62336;-26.094;27.994;2023-04-24T08:43:49;35;35;
73973;PMS5003;62336;-26.094;27.994;2023-04-24T08:46:15;38;34;
73973;PMS5003;62336;-26.094;27.994;2023-04-24T08:48:41;41;37;
73973;PMS5003;62336;-26.094;27.994;2023-04-24T08:51:06;37;33;
73973;PMS5003;62336;-26.094;27.994;2023-04-24T08:53:30;41;34;
73973;PMS5003;62336;-26.094;27.994;2023-04-24T08:55:56;32;31;
73973;PMS5003;62336;-26.094;27.994;2023-04-24T08:58:21;32;30;
73973;PMS5003;62336;-26.094;27.994;2023-04-24T09:00:47;32;32;
73973;PMS5003;62336;-26.094;27.994;2023-04-24T09:03:13;34;32;
73973;PMS5003;62336;-26.094;27.994;2023-04-24T09:05:37;28;26;
73973;PMS5003;62336;-26.094;27.994;2023-04-24T09:08:03;25;23;
73973;PMS5003;62336;-26.094;27.994;2023-04-24T09:10:28;21;18;
73973;PMS5003;62336;-26.094;27.994;2023-04-24T09:12:54;23;22;
73973;PMS5003;62336;-26.094;27.994;2023-04-24T09:15:19;25;24;
73973;PMS5003;62336;-26.094;27.994;2023-04-24T09:17:45;23;23;
73973;PMS5003;62336;-26.094;27.994;2023-04-24T09:20:10;23;22;
73973;PMS5003;62336;-26.094;27.994;2023-04-24T09:22:36;21;19;
73973;PMS5003;62336;-26.094;27.994;2023-04-24T09:25:02;27;23;
73973;PMS5003;62336;-26.094;27.994;2023-04-24T09:27:27;24;24;
73973;PMS5003;62336;-26.094;27.994;2023-04-24T09:29:55;28;27;
73973;PMS5003;62336;-26.094;27.994;2023-04-24T09:32:19;25;25;
73973;PMS5003;62336;-26.094;27.994;2023-04-24T09:34:43;24;24;
73973;PMS5003;62336;-26.094;27.994;2023-04-24T09:37:08;27;24;
73973;PMS5003;62336;-26.094;27.994;2023-04-24T09:39:33;28;28;
73973;PMS5003;62336;-26.094;27.994;2023-04-24T09:41:59;24;23;
73973;PMS5003;62336;-26.094;27.994;2023-04-24T09:44:26;23;22;
73973;PMS5003;62336;-26.094;27.994;2023-04-24T09:46:51;28;26;
73973;PMS5003;62336;-26.094;27.994;2023-04-24T09:49:16;27;25;
73973;PMS5003;62336;-26.094;27.994;2023-04-24T09:51:41;24;23;
73973;PMS5003;62336;-26.094;27.994;2023-04-24T09:54:13;32;29;
73973;PMS5003;62336;-26.094;27.994;2023-04-24T09:56:33;29;27;
73973;PMS5003;62336;-26.094;27.994;2023-04-24T10:03:48;26;26;
73973;PMS5003;62336;-26.094;27.994;2023-04-24T10:06:13;27;23;
73973;PMS5003;62336;-26.094;27.994;2023-04-24T10:08:39;21;20;
73973;PMS5003;62336;-26.094;27.994;2023-04-24T10:11:04;22;20;
73973;PMS5003;62336;-26.094;27.994;2023-04-24T10:13:29;23;22;
73973;PMS5003;62336;-26.094;27.994;2023-04-24T10:15:55;26;24;
73973;PMS5003;62336;-26.094;27.994;2023-04-24T10:18:20;25;24;
73973;PMS5003;62336;-26.094;27.994;2023-04-24T10:20:46;21;21;
73973;PMS5003;62336;-26.094;27.994;2023-04-24T10:23:11;23;21;
73973;PMS5003;62336;-26.094;27.994;2023-04-24T10:25:37;25;22;
73973;PMS5003;62336;-26.094;27.994;2023-04-24T10:28:02;26;26;
73973;PMS5003;62336;-26.094;27.994;2023-04-24T10:30:28;20;18;
73973;PMS5003;62336;-26.094;27.994;2023-04-24T10:32:52;14;14;
73973;PMS5003;62336;-26.094;27.994;2023-04-24T10:35:18;21;18;
73973;PMS5003;62336;-26.094;27.994;2023-04-24T10:37:45;14;14;
73973;PMS5003;62336;-26.094;27.994;2023-04-24T10:40:10;16;15;
73973;PMS5003;62336;-26.094;27.994;2023-04-24T10:42:34;13;12;
73973;PMS5003;62336;-26.094;27.994;2023-04-24T10:45:00;15;15;
73973;PMS5003;62336;-26.094;27.994;2023-04-24T10:47:25;14;14;
73973;PMS5003;62336;-26.094;27.994;2023-04-24T10:49:50;12;11;
73973;PMS5003;62336;-26.094;27.994;2023-04-24T10:52:15;7;7;
73973;PMS5003;62336;-26.094;27.994;2023-04-24T10:54:41;8;7;
73973;PMS5003;62336;-26.094;27.994;2023-04-24T10:59:34;14;13;
73973;PMS5003;62336;-26.094;27.994;2023-04-24T11:01:56;13;11;
73973;PMS5003;62336;-26.094;27.994;2023-04-24T11:06:47;17;17;
73973;PMS5003;62336;-26.094;27.994;2023-04-24T11:09:12;18;18;
73973;PMS5003;62336;-26.094;27.994;2023-04-24T11:11:37;20;18;
73973;PMS5003;62336;-26.094;27.994;2023-04-24T11:14:03;18;17;
73973;PMS5003;62336;-26.094;27.994;2023-04-24T11:16:28;14;14;
73973;PMS5003;62336;-26.094;27.994;2023-04-24T11:19:00;22;18;
73973;PMS5003;62336;-26.094;27.994;2023-04-24T11:21:18;17;17;
73973;PMS5003;62336;-26.094;27.994;2023-04-24T11:23:43;23;22;
73973;PMS5003;62336;-26.094;27.994;2023-04-24T11:26:12;18;17;
73973;PMS5003;62336;-26.094;27.994;2023-04-24T11:28:34;17;17;
73973;PMS5003;62336;-26.094;27.994;2023-04-24T11:30:58;17;15;
73973;PMS5003;62336;-26.094;27.994;2023-04-24T11:33:24;20;17;
73973;PMS5003;62336;-26.094;27.994;2023-04-24T11:35:50;17;16;
73973;PMS5003;62336;-26.094;27.994;2023-04-24T11:38:15;20;17;
73973;PMS5003;62336;-26.094;27.994;2023-04-24T11:40:40;19;17;
73973;PMS5003;62336;-26.094;27.994;2023-04-24T11:43:06;19;19;
73973;PMS5003;62336;-26.094;27.994;2023-04-24T11:45:30;20;19;
73973;PMS5003;62336;-26.094;27.994;2023-04-24T11:47:56;21;21;
73973;PMS5003;62336;-26.094;27.994;2023-04-24T11:50:22;23;22;
73973;PMS5003;62336;-26.094;27.994;2023-04-24T11:52:48;25;22;
73973;PMS5003;62336;-26.094;27.994;2023-04-24T11:57:38;32;30;
73973;PMS5003;62336;-26.094;27.994;2023-04-24T12:00:03;25;25;
73973;PMS5003;62336;-26.094;27.994;2023-04-24T12:02:28;26;26;
73973;PMS5003;62336;-26.094;27.994;2023-04-24T12:04:54;32;31;
73973;PMS5003;62336;-26.094;27.994;2023-04-24T12:07:21;29;26;
73973;PMS5003;62336;-26.094;27.994;2023-04-24T12:09:46;31;30;
73973;PMS5003;62336;-26.094;27.994;2023-04-24T12:12:11;33;29;
73973;PMS5003;62336;-26.094;27.994;2023-04-24T12:17:01;31;30;
73973;PMS5003;62336;-26.094;27.994;2023-04-24T12:19:26;35;32;
73973;PMS5003;62336;-26.094;27.994;2023-04-24T12:21:59;31;29;
73973;PMS5003;62336;-26.094;27.994;2023-04-24T12:24:18;32;29;
73973;PMS5003;62336;-26.094;27.994;2023-04-24T12:26:43;30;30;
73973;PMS5003;62336;-26.094;27.994;2023-04-24T12:29:09;34;32;
73973;PMS5003;62336;-26.094;27.994;2023-04-24T12:31:34;33;32;
73973;PMS5003;62336;-26.094;27.994;2023-04-24T12:33:59;27;27;
73973;PMS5003;62336;-26.094;27.994;2023-04-24T12:36:25;30;29;
73973;PMS5003;62336;-26.094;27.994;2023-04-24T12:38:52;22;22;
73973;PMS5003;62336;-26.094;27.994;2023-04-24T12:41:15;26;23;
73973;PMS5003;62336;-26.094;27.994;2023-04-24T12:46:06;28;24;
73973;PMS5003;62336;-26.094;27.994;2023-04-24T12:48:31;22;22;
73973;PMS5003;62336;-26.094;27.994;2023-04-24T12:50:57;26;24;
73973;PMS5003;62336;-26.094;27.994;2023-04-24T12:53:22;31;30;
73973;PMS5003;62336;-26.094;27.994;2023-04-24T12:55:48;26;26;
73973;PMS5003;62336;-26.094;27.994;2023-04-24T12:58:13;27;27;
73973;PMS5003;62336;-26.094;27.994;2023-04-24T13:00:39;32;31;
73973;PMS5003;62336;-26.094;27.994;2023-04-24T13:03:04;29;29;
73973;PMS5003;62336;-26.094;27.994;2023-04-24T13:05:29;28;27;
73973;PMS5003;62336;-26.094;27.994;2023-04-24T13:07:55;25;25;
73973;PMS5003;62336;-26.094;27.994;2023-04-24T13:10:20;24;23;
73973;PMS5003;62336;-26.094;27.994;2023-04-24T13:12:45;21;21;
73973;PMS5003;62336;-26.094;27.994;2023-04-24T13:15:10;23;23;
73973;PMS5003;62336;-26.094;27.994;2023-04-24T13:17:35;24;22;
73973;PMS5003;62336;-26.094;27.994;2023-04-24T13:20:01;23;23;
73973;PMS5003;62336;-26.094;27.994;2023-04-24T13:22:26;26;26;
73973;PMS5003;62336;-26.094;27.994;2023-04-24T13:24:51;26;24;
73973;PMS5003;62336;-26.094;27.994;2023-04-24T13:27:17;28;24;
73973;PMS5003;62336;-26.094;27.994;2023-04-24T13:29:42;25;24;
73973;PMS5003;62336;-26.094;27.994;2023-04-24T13:32:08;26;26;
73973;PMS5003;62336;-26.094;27.994;2023-04-24T13:34:34;28;27;
73973;PMS5003;62336;-26.094;27.994;2023-04-24T13:36:59;30;28;
73973;PMS5003;62336;-26.094;27.994;2023-04-24T13:39:30;29;27;
73973;PMS5003;62336;-26.094;27.994;2023-04-24T13:41:52;31;31;
73973;PMS5003;62336;-26.094;27.994;2023-04-24T13:44:16;26;25;
73973;PMS5003;62336;-26.094;27.994;2023-04-24T13:46:41;29;28;
73973;PMS5003;62336;-26.094;27.994;2023-04-24T13:49:07;22;22;
73973;PMS5003;62336;-26.094;27.994;2023-04-24T13:51:32;24;24;
73973;PMS5003;62336;-26.094;27.994;2023-04-24T13:53:57;29;28;
73973;PMS5003;62336;-26.094;27.994;2023-04-24T13:56:23;31;30;
73973;PMS5003;62336;-26.094;27.994;2023-04-24T13:58:49;28;25;
73973;PMS5003;62336;-26.094;27.994;2023-04-24T14:01:14;27;26;
73973;PMS5003;62336;-26.094;27.994;2023-04-24T14:03:39;28;25;
73973;PMS5003;62336;-26.094;27.994;2023-04-24T14:06:04;30;28;
73973;PMS5003;62336;-26.094;27.994;2023-04-24T14:08:30;29;26;
73973;PMS5003;62336;-26.094;27.994;2023-04-24T14:10:57;21;21;
73973;PMS5003;62336;-26.094;27.994;2023-04-24T14:13:23;28;26;
73973;PMS5003;62336;-26.094;27.994;2023-04-24T14:15:46;26;21;
73973;PMS5003;62336;-26.094;27.994;2023-04-24T14:18:13;23;22;
73973;PMS5003;62336;-26.094;27.994;2023-04-24T14:20:37;25;24;
73973;PMS5003;62336;-26.094;27.994;2023-04-24T14:23:03;30;29;
73973;PMS5003;62336;-26.094;27.994;2023-04-24T14:25:27;27;25;
73973;PMS5003;62336;-26.094;27.994;2023-04-24T14:27:53;29;28;
73973;PMS5003;62336;-26.094;27.994;2023-04-24T14:30:19;30;28;
73973;PMS5003;62336;-26.094;27.994;2023-04-24T14:32:43;37;33;
73973;PMS5003;62336;-26.094;27.994;2023-04-24T14:35:09;32;31;
73973;PMS5003;62336;-26.094;27.994;2023-04-24T14:37:34;35;33;
73973;PMS5003;62336;-26.094;27.994;2023-04-24T14:39:59;36;34;
73973;PMS5003;62336;-26.094;27.994;2023-04-24T14:42:25;28;28;
73973;PMS5003;62336;-26.094;27.994;2023-04-24T14:44:50;31;31;
73973;PMS5003;62336;-26.094;27.994;2023-04-24T14:47:15;29;27;
73973;PMS5003;62336;-26.094;27.994;2023-04-24T14:49:41;32;29;
73973;PMS5003;62336;-26.094;27.994;2023-04-24T14:52:07;30;23;
73973;PMS5003;62336;-26.094;27.994;2023-04-24T14:54:31;30;28;
73973;PMS5003;62336;-26.094;27.994;2023-04-24T14:56:57;25;25;
73973;PMS5003;62336;-26.094;27.994;2023-04-24T14:59:23;24;24;
73973;PMS5003;62336;-26.094;27.994;2023-04-24T15:01:49;24;23;
73973;PMS5003;62336;-26.094;27.994;2023-04-24T15:04:13;27;26;
73973;PMS5003;62336;-26.094;27.994;2023-04-24T15:06:39;24;23;
73973;PMS5003;62336;-26.094;27.994;2023-04-24T15:09:05;28;25;
73973;PMS5003;62336;-26.094;27.994;2023-04-24T15:11:30;25;23;
73973;PMS5003;62336;-26.094;27.994;2023-04-24T15:13:55;21;20;
73973;PMS5003;62336;-26.094;27.994;2023-04-24T15:16:23;28;25;
73973;PMS5003;62336;-26.094;27.994;2023-04-24T15:18:46;23;23;
73973;PMS5003;62336;-26.094;27.994;2023-04-24T15:21:12;21;21;
73973;PMS5003;62336;-26.094;27.994;2023-04-24T15:23:38;25;24;
73973;PMS5003;62336;-26.094;27.994;2023-04-24T15:26:03;22;21;
73973;PMS5003;62336;-26.094;27.994;2023-04-24T15:28:29;24;23;
73973;PMS5003;62336;-26.094;27.994;2023-04-24T15:30:54;24;22;
73973;PMS5003;62336;-26.094;27.994;2023-04-24T15:33:19;26;22;
73973;PMS5003;62336;-26.094;27.994;2023-04-24T15:35:45;22;21;
73973;PMS5003;62336;-26.094;27.994;2023-04-24T15:38:11;25;24;
73973;PMS5003;62336;-26.094;27.994;2023-04-24T15:40:36;22;21;
73973;PMS5003;62336;-26.094;27.994;2023-04-24T15:43:01;23;22;
73973;PMS5003;62336;-26.094;27.994;2023-04-24T15:45:27;26;23;
73973;PMS5003;62336;-26.094;27.994;2023-04-24T15:47:52;27;26;
73973;PMS5003;62336;-26.094;27.994;2023-04-24T15:50:17;24;24;
73973;PMS5003;62336;-26.094;27.994;2023-04-24T15:52:43;23;21;
73973;PMS5003;62336;-26.094;27.994;2023-04-24T15:55:08;25;23;
73973;PMS5003;62336;-26.094;27.994;2023-04-24T15:57:33;22;19;